KBCE/BCE METAR and TAF weather

Enter ICAO airport designator
Station Type Date Time Source
KBCE METAR 2018/10/21 05:53 UTC NOAA

KBCE 210553Z AUTO 26006KT 10SM FEW041 FEW050 BKN075 01/01 A3038 RMK AO2 SLP227 T00110006 10117 20006 50000


Station Type Date Time Source
KBCE Decoded METAR 2018/10/21 05:53 UTC NOAA

BRYCE CANYON AIRPORT, UT, United States (KBCE) 37-42N 112-09W 2312M
Oct 21, 2018 - 01:53 AM EDT / 2018.10.21 0553 UTC
Wind: from the W (260 degrees) at 7 MPH (6 KT):0
Visibility: 10 mile(s):0
Sky conditions: mostly cloudy
Temperature: 34.0 F (1.1 C)
Windchill: 28 F (-2 C):1
Dew Point: 33.1 F (0.6 C)
Relative Humidity: 96%
Pressure (altimeter): 30.38 in. Hg (1028 hPa)
Pressure tendency: 0.00 inches (0.0 hPa) higher than three hours ago
ob: KBCE 210553Z AUTO 26006KT 10SM FEW041 FEW050 BKN075 01/01 A3038 RMK AO2 SLP227 T00110006 10117 20006 50000
cycle: 6

Station Type Date Time Source
KBCE TAF 2018/10/21 06:42 UTC NOAA

TAF KBCE 210540Z 2106/2206 27005KT P6SM BKN070
FM211400 VRB05KT P6SM -SHRA SCT040 OVC060
FM211800 12012KT P6SM VCSH SCT040 BKN070
FM220300 27006KT P6SM SCT060 BKN100


Example: see airport list